sensor_id;sensor_type;location;lat;lon;timestamp;temperature;humidity
26272;DHT22;13997;48.902;12.472;2023-06-05T00:00:42;435.80;2355.20
26272;DHT22;13997;48.902;12.472;2023-06-05T00:03:07;435.80;2355.20
26272;DHT22;13997;48.902;12.472;2023-06-05T00:05:33;435.80;2355.20
26272;DHT22;13997;48.902;12.472;2023-06-05T00:07:58;435.80;2355.20
26272;DHT22;13997;48.902;12.472;2023-06-05T00:10:24;435.70;2355.20
26272;DHT22;13997;48.902;12.472;2023-06-05T00:12:50;435.70;2355.20
26272;DHT22;13997;48.902;12.472;2023-06-05T00:15:16;435.60;2355.20
26272;DHT22;13997;48.902;12.472;2023-06-05T00:17:41;435.60;2355.20
26272;DHT22;13997;48.902;12.472;2023-06-05T00:20:07;435.50;2355.20
26272;DHT22;13997;48.902;12.472;2023-06-05T00:22:36;435.50;2355.20
26272;DHT22;13997;48.902;12.472;2023-06-05T00:25:02;435.50;2355.20
26272;DHT22;13997;48.902;12.472;2023-06-05T00:27:28;435.50;2355.20
26272;DHT22;13997;48.902;12.472;2023-06-05T00:29:54;435.40;2355.20
26272;DHT22;13997;48.902;12.472;2023-06-05T00:32:19;435.40;2355.20
26272;DHT22;13997;48.902;12.472;2023-06-05T00:34:45;435.40;2355.20
26272;DHT22;13997;48.902;12.472;2023-06-05T00:37:12;435.40;2355.20
26272;DHT22;13997;48.902;12.472;2023-06-05T00:39:39;435.30;2355.20
26272;DHT22;13997;48.902;12.472;2023-06-05T00:42:06;435.30;2355.20
26272;DHT22;13997;48.902;12.472;2023-06-05T00:44:32;435.30;2355.20
26272;DHT22;13997;48.902;12.472;2023-06-05T00:46:58;435.30;2355.20
26272;DHT22;13997;48.902;12.472;2023-06-05T00:49:24;435.30;2355.20
26272;DHT22;13997;48.902;12.472;2023-06-05T00:51:51;435.20;2355.20
26272;DHT22;13997;48.902;12.472;2023-06-05T00:54:16;435.20;2355.20
26272;DHT22;13997;48.902;12.472;2023-06-05T00:56:43;410.50;2355.20
26272;DHT22;13997;48.902;12.472;2023-06-05T00:59:08;410.50;2355.20
26272;DHT22;13997;48.902;12.472;2023-06-05T01:01:39;410.40;2355.20
26272;DHT22;13997;48.902;12.472;2023-06-05T01:04:06;410.40;2355.20
26272;DHT22;13997;48.902;12.472;2023-06-05T01:06:32;410.40;2355.20
26272;DHT22;13997;48.902;12.472;2023-06-05T01:08:59;410.30;2355.20
26272;DHT22;13997;48.902;12.472;2023-06-05T01:13:58;410.20;2355.20
26272;DHT22;13997;48.902;12.472;2023-06-05T01:16:28;410.20;2355.20
26272;DHT22;13997;48.902;12.472;2023-06-05T01:21:30;410.10;2355.20
26272;DHT22;13997;48.902;12.472;2023-06-05T01:23:58;410.10;2355.20
26272;DHT22;13997;48.902;12.472;2023-06-05T01:26:32;410.10;2355.20
26272;DHT22;13997;48.902;12.472;2023-06-05T01:28:59;410.10;2355.20
26272;DHT22;13997;48.902;12.472;2023-06-05T01:31:27;410.00;2355.20
26272;DHT22;13997;48.902;12.472;2023-06-05T01:33:57;410.00;2355.20
26272;DHT22;13997;48.902;12.472;2023-06-05T01:36:28;410.00;2355.20
26272;DHT22;13997;48.902;12.472;2023-06-05T01:38:55;410.00;2355.20
26272;DHT22;13997;48.902;12.472;2023-06-05T01:41:22;409.90;2355.20
26272;DHT22;13997;48.902;12.472;2023-06-05T01:43:48;409.90;2355.20
26272;DHT22;13997;48.902;12.472;2023-06-05T01:46:18;409.80;2355.20
26272;DHT22;13997;48.902;12.472;2023-06-05T01:48:43;409.80;2355.20
26272;DHT22;13997;48.902;12.472;2023-06-05T01:51:10;409.70;2355.20
26272;DHT22;13997;48.902;12.472;2023-06-05T01:53:35;409.70;2355.20
26272;DHT22;13997;48.902;12.472;2023-06-05T01:56:01;409.70;2355.20
26272;DHT22;13997;48.902;12.472;2023-06-05T01:58:28;409.70;2355.20
26272;DHT22;13997;48.902;12.472;2023-06-05T02:00:54;409.70;2355.20
26272;DHT22;13997;48.902;12.472;2023-06-05T02:03:22;409.60;2355.20
26272;DHT22;13997;48.902;12.472;2023-06-05T02:05:48;384.90;2329.60
26272;DHT22;13997;48.902;12.472;2023-06-05T02:08:14;384.90;2329.60
26272;DHT22;13997;48.902;12.472;2023-06-05T02:10:45;384.80;2329.60
26272;DHT22;13997;48.902;12.472;2023-06-05T02:13:12;384.80;2329.60
26272;DHT22;13997;48.902;12.472;2023-06-05T02:15:38;384.80;2329.60
26272;DHT22;13997;48.902;12.472;2023-06-05T02:18:04;384.80;2329.60
26272;DHT22;13997;48.902;12.472;2023-06-05T02:20:33;384.80;2329.60
26272;DHT22;13997;48.902;12.472;2023-06-05T02:23:00;384.70;2329.60
26272;DHT22;13997;48.902;12.472;2023-06-05T02:25:25;384.70;2329.60
26272;DHT22;13997;48.902;12.472;2023-06-05T02:27:52;384.70;2329.60
26272;DHT22;13997;48.902;12.472;2023-06-05T02:30:18;384.70;2329.60
26272;DHT22;13997;48.902;12.472;2023-06-05T02:32:43;384.60;2329.60
26272;DHT22;13997;48.902;12.472;2023-06-05T02:35:12;384.60;2329.60
26272;DHT22;13997;48.902;12.472;2023-06-05T02:37:39;384.60;2329.60
26272;DHT22;13997;48.902;12.472;2023-06-05T02:40:12;384.60;2329.60
26272;DHT22;13997;48.902;12.472;2023-06-05T02:42:39;384.60;2329.60
26272;DHT22;13997;48.902;12.472;2023-06-05T02:45:06;384.50;2329.60
26272;DHT22;13997;48.902;12.472;2023-06-05T02:47:32;384.50;2329.60
26272;DHT22;13997;48.902;12.472;2023-06-05T02:49:58;384.50;2329.60
26272;DHT22;13997;48.902;12.472;2023-06-05T02:52:24;384.40;2329.60
26272;DHT22;13997;48.902;12.472;2023-06-05T02:54:50;384.30;2329.60
26272;DHT22;13997;48.902;12.472;2023-06-05T02:57:16;384.30;2329.60
26272;DHT22;13997;48.902;12.472;2023-06-05T02:59:43;384.30;2329.60
26272;DHT22;13997;48.902;12.472;2023-06-05T03:02:09;384.20;2329.60
26272;DHT22;13997;48.902;12.472;2023-06-05T03:04:35;384.20;2329.60
26272;DHT22;13997;48.902;12.472;2023-06-05T03:09:31;384.20;2329.60
26272;DHT22;13997;48.902;12.472;2023-06-05T03:11:57;384.10;2329.60
26272;DHT22;13997;48.902;12.472;2023-06-05T03:14:23;384.00;2329.60
26272;DHT22;13997;48.902;12.472;2023-06-05T03:16:49;359.30;2329.60
26272;DHT22;13997;48.902;12.472;2023-06-05T03:19:14;359.30;2329.60
26272;DHT22;13997;48.902;12.472;2023-06-05T03:21:40;359.20;2329.60
26272;DHT22;13997;48.902;12.472;2023-06-05T03:24:08;359.20;2329.60
26272;DHT22;13997;48.902;12.472;2023-06-05T03:26:34;359.20;2329.60
26272;DHT22;13997;48.902;12.472;2023-06-05T03:29:00;359.30;2329.60
26272;DHT22;13997;48.902;12.472;2023-06-05T03:31:26;359.30;2329.60
26272;DHT22;13997;48.902;12.472;2023-06-05T03:33:51;359.30;2329.60
26272;DHT22;13997;48.902;12.472;2023-06-05T03:36:17;359.30;2329.60
26272;DHT22;13997;48.902;12.472;2023-06-05T03:38:43;359.20;2329.60
26272;DHT22;13997;48.902;12.472;2023-06-05T03:41:09;359.20;2329.60
26272;DHT22;13997;48.902;12.472;2023-06-05T03:43:35;359.30;2329.60
26272;DHT22;13997;48.902;12.472;2023-06-05T03:46:02;359.20;2329.60
26272;DHT22;13997;48.902;12.472;2023-06-05T03:48:27;359.20;2329.60
26272;DHT22;13997;48.902;12.472;2023-06-05T03:50:53;359.30;2329.60
26272;DHT22;13997;48.902;12.472;2023-06-05T03:53:21;359.30;2329.60
26272;DHT22;13997;48.902;12.472;2023-06-05T03:55:48;359.30;2329.60
26272;DHT22;13997;48.902;12.472;2023-06-05T03:58:15;359.30;2329.60
26272;DHT22;13997;48.902;12.472;2023-06-05T04:00:46;359.30;2329.60
26272;DHT22;13997;48.902;12.472;2023-06-05T04:03:14;359.30;2329.60
26272;DHT22;13997;48.902;12.472;2023-06-05T04:05:40;384.00;2329.60
26272;DHT22;13997;48.902;12.472;2023-06-05T04:08:07;384.00;2329.60
26272;DHT22;13997;48.902;12.472;2023-06-05T04:10:32;384.00;2329.60
26272;DHT22;13997;48.902;12.472;2023-06-05T04:12:58;384.00;2329.60
26272;DHT22;13997;48.902;12.472;2023-06-05T04:15:24;384.00;2329.60
26272;DHT22;13997;48.902;12.472;2023-06-05T04:17:50;384.10;2329.60
26272;DHT22;13997;48.902;12.472;2023-06-05T04:20:16;384.00;2329.60
26272;DHT22;13997;48.902;12.472;2023-06-05T04:22:42;384.10;2329.60
26272;DHT22;13997;48.902;12.472;2023-06-05T04:25:09;384.10;2329.60
26272;DHT22;13997;48.902;12.472;2023-06-05T04:27:42;384.10;2329.60
26272;DHT22;13997;48.902;12.472;2023-06-05T04:30:09;384.10;2329.60
26272;DHT22;13997;48.902;12.472;2023-06-05T04:32:36;384.10;2329.60
26272;DHT22;13997;48.902;12.472;2023-06-05T04:35:05;384.10;2329.60
26272;DHT22;13997;48.902;12.472;2023-06-05T04:37:32;384.20;2329.60
26272;DHT22;13997;48.902;12.472;2023-06-05T04:39:58;384.20;2329.60
26272;DHT22;13997;48.902;12.472;2023-06-05T04:42:25;384.20;2329.60
26272;DHT22;13997;48.902;12.472;2023-06-05T04:44:56;384.20;2329.60
26272;DHT22;13997;48.902;12.472;2023-06-05T04:47:22;384.30;2329.60
26272;DHT22;13997;48.902;12.472;2023-06-05T04:49:48;384.30;2329.60
26272;DHT22;13997;48.902;12.472;2023-06-05T04:52:17;384.40;2329.60
26272;DHT22;13997;48.902;12.472;2023-06-05T04:54:43;384.40;2329.60
26272;DHT22;13997;48.902;12.472;2023-06-05T04:57:09;384.50;2329.60
26272;DHT22;13997;48.902;12.472;2023-06-05T04:59:36;384.60;2329.60
26272;DHT22;13997;48.902;12.472;2023-06-05T05:02:02;384.60;2329.60
26272;DHT22;13997;48.902;12.472;2023-06-05T05:04:28;384.70;2329.60
26272;DHT22;13997;48.902;12.472;2023-06-05T05:06:54;384.70;2329.60
26272;DHT22;13997;48.902;12.472;2023-06-05T05:09:20;384.80;2329.60
26272;DHT22;13997;48.902;12.472;2023-06-05T05:11:45;384.80;2329.60
26272;DHT22;13997;48.902;12.472;2023-06-05T05:14:11;384.90;2329.60
26272;DHT22;13997;48.902;12.472;2023-06-05T05:16:36;384.90;2329.60
26272;DHT22;13997;48.902;12.472;2023-06-05T05:19:02;384.90;2329.60
26272;DHT22;13997;48.902;12.472;2023-06-05T05:21:27;409.60;2355.20
26272;DHT22;13997;48.902;12.472;2023-06-05T05:23:53;384.90;2329.60
26272;DHT22;13997;48.902;12.472;2023-06-05T05:26:18;384.90;2329.60
26272;DHT22;13997;48.902;12.472;2023-06-05T05:28:44;384.90;2329.60
26272;DHT22;13997;48.902;12.472;2023-06-05T05:31:10;384.90;2329.60
26272;DHT22;13997;48.902;12.472;2023-06-05T05:33:36;384.90;2329.60
26272;DHT22;13997;48.902;12.472;2023-06-05T05:36:01;384.90;2329.60
26272;DHT22;13997;48.902;12.472;2023-06-05T05:38:27;384.90;2329.60
26272;DHT22;13997;48.902;12.472;2023-06-05T05:40:53;384.90;2329.60
26272;DHT22;13997;48.902;12.472;2023-06-05T05:43:19;384.90;2329.60
26272;DHT22;13997;48.902;12.472;2023-06-05T05:45:45;384.90;2329.60
26272;DHT22;13997;48.902;12.472;2023-06-05T05:48:11;384.90;2329.60
26272;DHT22;13997;48.902;12.472;2023-06-05T05:50:37;384.90;2329.60
26272;DHT22;13997;48.902;12.472;2023-06-05T05:53:03;384.90;2329.60
26272;DHT22;13997;48.902;12.472;2023-06-05T05:55:28;409.70;2355.20
26272;DHT22;13997;48.902;12.472;2023-06-05T05:57:54;409.70;2355.20
26272;DHT22;13997;48.902;12.472;2023-06-05T06:00:20;409.70;2355.20
26272;DHT22;13997;48.902;12.472;2023-06-05T06:02:46;409.80;2355.20
26272;DHT22;13997;48.902;12.472;2023-06-05T06:05:13;409.80;2355.20
26272;DHT22;13997;48.902;12.472;2023-06-05T06:07:38;410.00;2355.20
26272;DHT22;13997;48.902;12.472;2023-06-05T06:10:06;410.10;2355.20
26272;DHT22;13997;48.902;12.472;2023-06-05T06:12:33;410.30;2355.20
26272;DHT22;13997;48.902;12.472;2023-06-05T06:14:58;410.40;2355.20
26272;DHT22;13997;48.902;12.472;2023-06-05T06:17:24;435.30;2355.20
26272;DHT22;13997;48.902;12.472;2023-06-05T06:19:50;435.50;2355.20
26272;DHT22;13997;48.902;12.472;2023-06-05T06:22:15;435.70;2355.20
26272;DHT22;13997;48.902;12.472;2023-06-05T06:24:41;435.90;2355.20
26272;DHT22;13997;48.902;12.472;2023-06-05T06:27:11;436.10;2355.20
26272;DHT22;13997;48.902;12.472;2023-06-05T06:29:47;436.10;2355.20
26272;DHT22;13997;48.902;12.472;2023-06-05T06:32:13;460.80;2380.80
26272;DHT22;13997;48.902;12.472;2023-06-05T06:34:38;461.00;2380.80
26272;DHT22;13997;48.902;12.472;2023-06-05T06:37:04;461.00;2380.80
26272;DHT22;13997;48.902;12.472;2023-06-05T06:39:29;461.10;2380.80
26272;DHT22;13997;48.902;12.472;2023-06-05T06:41:55;461.30;2380.80
26272;DHT22;13997;48.902;12.472;2023-06-05T07:23:37;461.60;2380.80
26272;DHT22;13997;48.902;12.472;2023-06-05T07:26:04;512.30;2380.80
26272;DHT22;13997;48.902;12.472;2023-06-05T07:28:30;512.30;2380.80
26272;DHT22;13997;48.902;12.472;2023-06-05T07:30:55;512.20;2380.80
26272;DHT22;13997;48.902;12.472;2023-06-05T07:33:21;512.20;2380.80
26272;DHT22;13997;48.902;12.472;2023-06-05T07:35:47;512.10;2380.80
26272;DHT22;13997;48.902;12.472;2023-06-05T07:38:14;512.10;2380.80
26272;DHT22;13997;48.902;12.472;2023-06-05T07:40:40;512.00;2380.80
26272;DHT22;13997;48.902;12.472;2023-06-05T07:43:05;512.10;2380.80
26272;DHT22;13997;48.902;12.472;2023-06-05T07:45:31;512.10;2380.80
26272;DHT22;13997;48.902;12.472;2023-06-05T07:47:57;512.30;2380.80
26272;DHT22;13997;48.902;12.472;2023-06-05T07:50:22;512.30;2380.80
26272;DHT22;13997;48.902;12.472;2023-06-05T07:52:48;512.40;2380.80
26272;DHT22;13997;48.902;12.472;2023-06-05T07:55:13;512.60;2380.80
26272;DHT22;13997;48.902;12.472;2023-06-05T07:57:39;512.60;2380.80
26272;DHT22;13997;48.902;12.472;2023-06-05T08:00:05;512.60;2380.80
26272;DHT22;13997;48.902;12.472;2023-06-05T08:02:31;512.70;2380.80
26272;DHT22;13997;48.902;12.472;2023-06-05T08:04:57;512.80;2380.80
26272;DHT22;13997;48.902;12.472;2023-06-05T08:07:22;537.60;2406.40
26272;DHT22;13997;48.902;12.472;2023-06-05T08:09:48;537.60;2406.40
26272;DHT22;13997;48.902;12.472;2023-06-05T08:12:13;537.70;2406.40
26272;DHT22;13997;48.902;12.472;2023-06-05T08:14:39;538.00;2406.40
26272;DHT22;13997;48.902;12.472;2023-06-05T08:17:05;538.10;2406.40
26272;DHT22;13997;48.902;12.472;2023-06-05T08:19:30;538.20;2406.40
26272;DHT22;13997;48.902;12.472;2023-06-05T08:21:56;538.20;2406.40
26272;DHT22;13997;48.902;12.472;2023-06-05T08:24:22;538.30;2406.40
26272;DHT22;13997;48.902;12.472;2023-06-05T08:26:48;538.40;2406.40
26272;DHT22;13997;48.902;12.472;2023-06-05T08:29:15;538.50;2406.40
26272;DHT22;13997;48.902;12.472;2023-06-05T10:06:04;563.30;2432.00
26272;DHT22;13997;48.902;12.472;2023-06-05T11:55:15;589.30;2432.00
26272;DHT22;13997;48.902;12.472;2023-06-05T11:57:45;640.40;2432.00
26272;DHT22;13997;48.902;12.472;2023-06-05T12:00:12;640.40;2432.00
26272;DHT22;13997;48.902;12.472;2023-06-05T12:02:42;640.30;2432.00
26272;DHT22;13997;48.902;12.472;2023-06-05T12:05:09;640.00;2432.00
26272;DHT22;13997;48.902;12.472;2023-06-05T12:07:36;615.10;2432.00
26272;DHT22;13997;48.902;12.472;2023-06-05T12:10:03;614.80;2432.00
26272;DHT22;13997;48.902;12.472;2023-06-05T12:12:29;614.50;2432.00
26272;DHT22;13997;48.902;12.472;2023-06-05T12:14:55;589.60;2432.00
26272;DHT22;13997;48.902;12.472;2023-06-05T12:17:21;589.10;2432.00
26272;DHT22;13997;48.902;12.472;2023-06-05T12:19:53;564.10;2432.00
26272;DHT22;13997;48.902;12.472;2023-06-05T12:22:19;563.60;2432.00
26272;DHT22;13997;48.902;12.472;2023-06-05T12:24:45;563.40;2432.00
26272;DHT22;13997;48.902;12.472;2023-06-05T12:27:11;563.40;2432.00
26272;DHT22;13997;48.902;12.472;2023-06-05T12:29:38;563.30;2432.00
26272;DHT22;13997;48.902;12.472;2023-06-05T12:32:20;563.30;2432.00
26272;DHT22;13997;48.902;12.472;2023-06-05T12:34:48;563.30;2432.00
26272;DHT22;13997;48.902;12.472;2023-06-05T12:39:49;563.20;2432.00
26272;DHT22;13997;48.902;12.472;2023-06-05T12:42:14;563.20;2432.00
26272;DHT22;13997;48.902;12.472;2023-06-05T12:44:40;538.40;2406.40
26272;DHT22;13997;48.902;12.472;2023-06-05T12:47:06;538.40;2406.40
26272;DHT22;13997;48.902;12.472;2023-06-05T12:49:32;538.40;2406.40
26272;DHT22;13997;48.902;12.472;2023-06-05T12:51:57;538.50;2406.40
26272;DHT22;13997;48.902;12.472;2023-06-05T12:54:23;563.20;2432.00
26272;DHT22;13997;48.902;12.472;2023-06-05T12:56:49;563.40;2432.00
26272;DHT22;13997;48.902;12.472;2023-06-05T12:59:14;563.40;2432.00
26272;DHT22;13997;48.902;12.472;2023-06-05T13:01:40;563.30;2432.00
26272;DHT22;13997;48.902;12.472;2023-06-05T13:04:06;563.30;2432.00
26272;DHT22;13997;48.902;12.472;2023-06-05T13:06:31;563.60;2432.00
26272;DHT22;13997;48.902;12.472;2023-06-05T13:08:59;563.70;2432.00
26272;DHT22;13997;48.902;12.472;2023-06-05T13:11:25;563.60;2432.00
26272;DHT22;13997;48.902;12.472;2023-06-05T13:13:51;563.70;2432.00
26272;DHT22;13997;48.902;12.472;2023-06-05T13:16:16;563.60;2432.00
26272;DHT22;13997;48.902;12.472;2023-06-05T13:18:42;563.80;2432.00
26272;DHT22;13997;48.902;12.472;2023-06-05T13:21:08;563.90;2432.00
26272;DHT22;13997;48.902;12.472;2023-06-05T13:23:33;563.90;2432.00
26272;DHT22;13997;48.902;12.472;2023-06-05T13:26:00;563.70;2432.00
26272;DHT22;13997;48.902;12.472;2023-06-05T13:28:25;563.60;2432.00
26272;DHT22;13997;48.902;12.472;2023-06-05T13:30:51;563.50;2432.00
26272;DHT22;13997;48.902;12.472;2023-06-05T13:33:18;563.60;2432.00
26272;DHT22;13997;48.902;12.472;2023-06-05T13:35:45;563.50;2432.00
26272;DHT22;13997;48.902;12.472;2023-06-05T13:38:10;563.40;2432.00
26272;DHT22;13997;48.902;12.472;2023-06-05T13:40:36;563.30;2432.00
26272;DHT22;13997;48.902;12.472;2023-06-05T13:43:02;563.20;2432.00
26272;DHT22;13997;48.902;12.472;2023-06-05T13:45:27;563.20;2432.00
26272;DHT22;13997;48.902;12.472;2023-06-05T13:47:53;563.30;2432.00
26272;DHT22;13997;48.902;12.472;2023-06-05T13:50:19;563.30;2432.00
26272;DHT22;13997;48.902;12.472;2023-06-05T13:52:46;563.40;2432.00
26272;DHT22;13997;48.902;12.472;2023-06-05T13:55:11;563.40;2432.00
26272;DHT22;13997;48.902;12.472;2023-06-05T13:57:37;563.70;2432.00
26272;DHT22;13997;48.902;12.472;2023-06-05T14:00:03;563.70;2432.00
26272;DHT22;13997;48.902;12.472;2023-06-05T14:02:30;563.70;2432.00
26272;DHT22;13997;48.902;12.472;2023-06-05T14:04:56;563.80;2432.00
26272;DHT22;13997;48.902;12.472;2023-06-05T14:07:21;564.00;2432.00
26272;DHT22;13997;48.902;12.472;2023-06-05T14:09:47;564.00;2432.00
26272;DHT22;13997;48.902;12.472;2023-06-05T14:12:13;564.00;2432.00
26272;DHT22;13997;48.902;12.472;2023-06-05T14:14:39;563.90;2432.00
26272;DHT22;13997;48.902;12.472;2023-06-05T14:17:05;563.60;2432.00
26272;DHT22;13997;48.902;12.472;2023-06-05T14:19:31;563.60;2432.00
26272;DHT22;13997;48.902;12.472;2023-06-05T14:21:57;563.50;2432.00
26272;DHT22;13997;48.902;12.472;2023-06-05T14:24:23;563.40;2432.00
26272;DHT22;13997;48.902;12.472;2023-06-05T14:26:49;563.70;2432.00
26272;DHT22;13997;48.902;12.472;2023-06-05T14:29:15;563.70;2432.00
26272;DHT22;13997;48.902;12.472;2023-06-05T14:31:41;563.80;2432.00
26272;DHT22;13997;48.902;12.472;2023-06-05T14:34:06;564.00;2432.00
26272;DHT22;13997;48.902;12.472;2023-06-05T14:36:32;564.10;2432.00
26272;DHT22;13997;48.902;12.472;2023-06-05T14:38:58;588.80;2432.00
26272;DHT22;13997;48.902;12.472;2023-06-05T14:41:24;564.10;2432.00
26272;DHT22;13997;48.902;12.472;2023-06-05T14:43:50;564.00;2432.00
26272;DHT22;13997;48.902;12.472;2023-06-05T14:46:15;564.10;2432.00
26272;DHT22;13997;48.902;12.472;2023-06-05T14:48:43;588.90;2432.00
26272;DHT22;13997;48.902;12.472;2023-06-05T14:51:10;589.10;2432.00
26272;DHT22;13997;48.902;12.472;2023-06-05T14:53:35;589.30;2432.00
26272;DHT22;13997;48.902;12.472;2023-06-05T14:56:01;589.30;2432.00
26272;DHT22;13997;48.902;12.472;2023-06-05T14:58:26;589.30;2432.00
26272;DHT22;13997;48.902;12.472;2023-06-05T15:00:52;589.20;2432.00
26272;DHT22;13997;48.902;12.472;2023-06-05T15:03:17;589.10;2432.00
26272;DHT22;13997;48.902;12.472;2023-06-05T15:05:43;589.00;2432.00
26272;DHT22;13997;48.902;12.472;2023-06-05T15:08:09;588.90;2432.00
26272;DHT22;13997;48.902;12.472;2023-06-05T15:10:35;564.10;2432.00
26272;DHT22;13997;48.902;12.472;2023-06-05T15:13:01;564.10;2432.00
26272;DHT22;13997;48.902;12.472;2023-06-05T15:15:27;564.00;2432.00
26272;DHT22;13997;48.902;12.472;2023-06-05T15:17:53;563.90;2432.00
26272;DHT22;13997;48.902;12.472;2023-06-05T15:20:20;563.70;2432.00
26272;DHT22;13997;48.902;12.472;2023-06-05T15:22:46;563.70;2432.00
26272;DHT22;13997;48.902;12.472;2023-06-05T15:25:12;563.60;2432.00
26272;DHT22;13997;48.902;12.472;2023-06-05T15:27:38;563.70;2432.00
26272;DHT22;13997;48.902;12.472;2023-06-05T15:30:05;563.70;2432.00
26272;DHT22;13997;48.902;12.472;2023-06-05T15:32:31;563.60;2432.00
26272;DHT22;13997;48.902;12.472;2023-06-05T15:34:57;563.60;2432.00
26272;DHT22;13997;48.902;12.472;2023-06-05T15:37:23;563.50;2432.00
26272;DHT22;13997;48.902;12.472;2023-06-05T15:39:49;563.60;2432.00
26272;DHT22;13997;48.902;12.472;2023-06-05T15:42:23;563.60;2432.00
26272;DHT22;13997;48.902;12.472;2023-06-05T15:44:52;563.70;2432.00
26272;DHT22;13997;48.902;12.472;2023-06-05T15:47:18;563.90;2432.00
26272;DHT22;13997;48.902;12.472;2023-06-05T15:49:44;563.80;2432.00
26272;DHT22;13997;48.902;12.472;2023-06-05T15:52:11;563.70;2432.00
26272;DHT22;13997;48.902;12.472;2023-06-05T15:54:36;563.70;2432.00
26272;DHT22;13997;48.902;12.472;2023-06-05T15:57:06;563.30;2432.00
26272;DHT22;13997;48.902;12.472;2023-06-05T15:59:33;563.20;2432.00
26272;DHT22;13997;48.902;12.472;2023-06-05T16:01:58;538.50;2406.40
26272;DHT22;13997;48.902;12.472;2023-06-05T16:04:24;563.20;2432.00
26272;DHT22;13997;48.902;12.472;2023-06-05T16:06:49;563.20;2432.00
26272;DHT22;13997;48.902;12.472;2023-06-05T16:09:15;563.20;2432.00
26272;DHT22;13997;48.902;12.472;2023-06-05T16:11:41;538.40;2406.40
26272;DHT22;13997;48.902;12.472;2023-06-05T16:14:06;538.30;2406.40
26272;DHT22;13997;48.902;12.472;2023-06-05T16:16:32;538.20;2406.40
26272;DHT22;13997;48.902;12.472;2023-06-05T16:18:57;538.40;2406.40
26272;DHT22;13997;48.902;12.472;2023-06-05T16:21:25;563.20;2432.00
26272;DHT22;13997;48.902;12.472;2023-06-05T16:23:51;538.40;2406.40
26272;DHT22;13997;48.902;12.472;2023-06-05T16:26:17;538.40;2406.40
26272;DHT22;13997;48.902;12.472;2023-06-05T16:28:43;538.40;2406.40
26272;DHT22;13997;48.902;12.472;2023-06-05T16:31:08;538.40;2406.40
26272;DHT22;13997;48.902;12.472;2023-06-05T16:33:36;538.30;2406.40
26272;DHT22;13997;48.902;12.472;2023-06-05T16:36:02;538.30;2406.40
26272;DHT22;13997;48.902;12.472;2023-06-05T16:38:28;538.20;2406.40
26272;DHT22;13997;48.902;12.472;2023-06-05T16:40:53;538.10;2406.40
26272;DHT22;13997;48.902;12.472;2023-06-05T16:43:19;538.10;2406.40
26272;DHT22;13997;48.902;12.472;2023-06-05T16:45:45;538.20;2406.40
26272;DHT22;13997;48.902;12.472;2023-06-05T16:48:10;538.00;2406.40
26272;DHT22;13997;48.902;12.472;2023-06-05T16:50:36;537.80;2406.40
26272;DHT22;13997;48.902;12.472;2023-06-05T16:53:02;537.70;2406.40
26272;DHT22;13997;48.902;12.472;2023-06-05T16:55:27;537.60;2406.40
26272;DHT22;13997;48.902;12.472;2023-06-05T16:57:53;537.60;2406.40
26272;DHT22;13997;48.902;12.472;2023-06-05T17:00:19;537.60;2406.40
26272;DHT22;13997;48.902;12.472;2023-06-05T17:02:44;512.80;2380.80
26272;DHT22;13997;48.902;12.472;2023-06-05T17:05:10;512.50;2380.80
26272;DHT22;13997;48.902;12.472;2023-06-05T17:07:36;512.40;2380.80
26272;DHT22;13997;48.902;12.472;2023-06-05T17:10:02;512.30;2380.80
26272;DHT22;13997;48.902;12.472;2023-06-05T17:12:28;512.30;2380.80
26272;DHT22;13997;48.902;12.472;2023-06-05T17:14:54;512.20;2380.80
26272;DHT22;13997;48.902;12.472;2023-06-05T17:17:19;512.10;2380.80
26272;DHT22;13997;48.902;12.472;2023-06-05T17:19:45;512.10;2380.80
26272;DHT22;13997;48.902;12.472;2023-06-05T17:22:11;512.10;2380.80
26272;DHT22;13997;48.902;12.472;2023-06-05T17:24:37;512.00;2380.80
26272;DHT22;13997;48.902;12.472;2023-06-05T17:27:02;512.00;2380.80
26272;DHT22;13997;48.902;12.472;2023-06-05T17:29:28;512.00;2380.80
26272;DHT22;13997;48.902;12.472;2023-06-05T17:31:54;487.30;2380.80
26272;DHT22;13997;48.902;12.472;2023-06-05T17:34:20;487.30;2380.80
26272;DHT22;13997;48.902;12.472;2023-06-05T17:36:46;487.30;2380.80
26272;DHT22;13997;48.902;12.472;2023-06-05T17:39:12;487.30;2380.80
26272;DHT22;13997;48.902;12.472;2023-06-05T17:41:37;487.30;2380.80
26272;DHT22;13997;48.902;12.472;2023-06-05T17:44:03;487.30;2380.80
26272;DHT22;13997;48.902;12.472;2023-06-05T17:46:29;487.30;2380.80
26272;DHT22;13997;48.902;12.472;2023-06-05T17:48:54;487.20;2380.80
26272;DHT22;13997;48.902;12.472;2023-06-05T17:51:20;487.20;2380.80
26272;DHT22;13997;48.902;12.472;2023-06-05T17:56:12;487.20;2380.80
26272;DHT22;13997;48.902;12.472;2023-06-05T17:58:37;487.00;2380.80
26272;DHT22;13997;48.902;12.472;2023-06-05T18:03:30;486.80;2380.80
26272;DHT22;13997;48.902;12.472;2023-06-05T18:10:47;486.70;2380.80
26272;DHT22;13997;48.902;12.472;2023-06-05T18:13:14;486.40;2380.80
26272;DHT22;13997;48.902;12.472;2023-06-05T18:15:39;461.70;2380.80
26272;DHT22;13997;48.902;12.472;2023-06-05T18:18:05;461.60;2380.80
26272;DHT22;13997;48.902;12.472;2023-06-05T18:20:32;461.60;2380.80
26272;DHT22;13997;48.902;12.472;2023-06-05T18:22:58;461.60;2380.80
26272;DHT22;13997;48.902;12.472;2023-06-05T18:25:23;461.70;2380.80
26272;DHT22;13997;48.902;12.472;2023-06-05T18:27:49;461.70;2380.80
26272;DHT22;13997;48.902;12.472;2023-06-05T18:30:18;486.50;2380.80
26272;DHT22;13997;48.902;12.472;2023-06-05T18:32:44;486.50;2380.80
26272;DHT22;13997;48.902;12.472;2023-06-05T18:35:09;486.50;2380.80
26272;DHT22;13997;48.902;12.472;2023-06-05T18:37:35;486.50;2380.80
26272;DHT22;13997;48.902;12.472;2023-06-05T18:40:01;486.40;2380.80
26272;DHT22;13997;48.902;12.472;2023-06-05T18:42:27;486.50;2380.80
26272;DHT22;13997;48.902;12.472;2023-06-05T18:44:52;486.40;2380.80
26272;DHT22;13997;48.902;12.472;2023-06-05T18:47:18;486.40;2380.80
26272;DHT22;13997;48.902;12.472;2023-06-05T18:49:44;461.70;2380.80